Time;durP1;ratioP1;P1;durP2;ratioP2;P2;SDS_P1;SDS_P2;PMS_P1;PMS_P2;Temp;Humidity;BMP_temperature;BMP_pressure;BME280_temperature;BME280_humidity;BME280_pressure;Samples;Min_cycle;Max_cycle;Signal;HPM_P1;HPM_P2
2022/09/17 00:00:09;;;;;;;;;;;;;;;10.85;100.00;-25371.16;5090425;28;20007;-82
2022/09/17 00:02:39;;;;;;;;;;;;;;;10.84;100.00;-25370.84;5056358;28;20399;-85
2022/09/17 00:05:05;;;;;;;;;;;;;;;10.85;100.00;-25371.16;5090866;28;20372;-79
2022/09/17 00:07:31;;;;;;;;;;;;;;;10.85;100.00;-25371.16;5074744;28;19921;-82
2022/09/17 00:09:56;;;;;;;;;;;;;;;10.81;100.00;-25370.13;5090567;28;19943;-79
2022/09/17 00:12:22;;;;;;;;;;;;;;;10.84;100.00;-25371.00;5073027;28;20550;-79
2022/09/17 00:14:47;;;;;;;;;;;;;;;10.88;100.00;-25372.03;5076579;28;19981;-78
2022/09/17 00:17:13;;;;;;;;;;;;;;;10.87;100.00;-25371.75;5075887;28;19916;-78
2022/09/17 00:19:38;;;;;;;;;;;;;;;10.84;100.00;-25371.00;5076484;28;19917;-77
2022/09/17 00:22:03;;;;;;;;;;;;;;;10.80;100.00;-25369.84;5076682;28;19916;-77
2022/09/17 00:24:41;;;;;;;;;;;;;;;10.79;100.00;-25369.53;5075654;28;19916;-84
2022/09/17 00:27:06;;;;;;;;;;;;;;;10.78;100.00;-25369.38;5076034;28;19968;-78
2022/09/17 00:29:32;;;;;;;;;;;;;;;10.78;100.00;-25369.25;5094175;28;19920;-83
2022/09/17 00:31:57;;;;;;;;;;;;;;;10.78;100.00;-25369.38;5057863;28;20011;-79
2022/09/17 00:34:24;;;;;;;;;;;;;;;10.83;100.00;-25370.72;5073683;28;20308;-79
2022/09/17 00:36:49;;;;;;;;;;;;;;;10.86;100.00;-25371.44;5064533;28;19917;-79
2022/09/17 00:39:15;;;;;;;;;;;;;;;10.93;100.00;-25373.50;5055275;28;19951;-83
2022/09/17 00:41:41;;;;;;;;;;;;;;;10.76;100.00;-25368.66;5054404;28;20372;-79
2022/09/17 00:44:27;;;;;;;;;;;;;;;10.75;100.00;-25368.38;5067244;28;20326;-80
2022/09/17 00:46:53;;;;;;;;;;;;;;;10.69;100.00;-25366.59;5059353;28;19916;-78
2022/09/17 00:49:25;;;;;;;;;;;;;;;10.67;100.00;-25366.00;5066717;28;19916;-79
2022/09/17 00:52:00;;;;;;;;;;;;;;;10.63;100.00;-25365.00;5074797;28;19923;-78
2022/09/17 00:54:26;;;;;;;;;;;;;;;10.69;100.00;-25366.75;5040481;28;19920;-78
2022/09/17 00:56:51;;;;;;;;;;;;;;;10.62;100.00;-25364.56;5055965;28;20368;-77
2022/09/17 00:59:18;;;;;;;;;;;;;;;10.60;100.00;-25364.25;5088740;28;19923;-77
2022/09/17 01:01:43;;;;;;;;;;;;;;;10.56;100.00;-25362.94;5055897;28;19959;-79
2022/09/17 01:04:25;;;;;;;;;;;;;;;10.62;100.00;-25364.69;5088619;28;19962;-79
2022/09/17 01:07:01;;;;;;;;;;;;;;;10.61;100.00;-25364.41;5073410;28;19916;-77
2022/09/17 01:09:45;;;;;;;;;;;;;;;10.61;100.00;-25364.41;5074116;28;19969;-78
2022/09/17 01:12:31;;;;;;;;;;;;;;;10.55;100.00;-25362.63;5075398;28;19928;-78
2022/09/17 01:14:56;;;;;;;;;;;;;;;10.57;100.00;-25363.38;5072022;28;19925;-78
2022/09/17 01:17:33;;;;;;;;;;;;;;;10.49;100.00;-25360.88;5056815;28;19916;-80
2022/09/17 01:20:01;;;;;;;;;;;;;;;10.43;100.00;-25359.13;5066740;28;19967;-79
2022/09/17 01:22:47;;;;;;;;;;;;;;;10.38;100.00;-25357.81;5088478;28;20018;-83
2022/09/17 01:25:23;;;;;;;;;;;;;;;10.36;100.00;-25357.22;5061892;28;19920;-81
2022/09/17 01:28:02;;;;;;;;;;;;;;;10.33;100.00;-25356.47;5055794;28;19974;-80
2022/09/17 01:30:31;;;;;;;;;;;;;;;10.36;100.00;-25357.22;5073500;28;19951;-84
2022/09/17 01:33:20;;;;;;;;;;;;;;;10.37;100.00;-25357.66;5055342;28;19927;-82
2022/09/17 01:36:04;;;;;;;;;;;;;;;10.35;100.00;-25356.94;5056325;28;20246;-82
2022/09/17 01:38:30;;;;;;;;;;;;;;;10.27;100.00;-25354.72;5043750;28;19999;-84
2022/09/17 01:41:02;;;;;;;;;;;;;;;10.19;100.00;-25352.38;5068268;28;19962;-84
2022/09/17 01:43:47;;;;;;;;;;;;;;;10.06;100.00;-25348.69;5073014;28;19920;-83
2022/09/17 01:46:13;;;;;;;;;;;;;;;9.98;100.00;-25346.34;5056462;28;19923;-83
2022/09/17 01:48:43;;;;;;;;;;;;;;;9.92;100.00;-25344.72;5075779;28;19916;-84
2022/09/17 01:51:10;;;;;;;;;;;;;;;9.87;100.00;-25343.25;5075296;28;20430;-83
2022/09/17 01:53:42;;;;;;;;;;;;;;;9.80;100.00;-25341.22;5075594;28;19920;-84
2022/09/17 01:56:09;;;;;;;;;;;;;;;9.74;100.00;-25339.44;5094676;28;19916;-83
2022/09/17 01:58:39;;;;;;;;;;;;;;;9.69;100.00;-25338.28;5088868;28;19974;-83
2022/09/17 02:01:05;;;;;;;;;;;;;;;9.68;100.00;-25337.97;5059336;28;19920;-81
2022/09/17 02:03:32;;;;;;;;;;;;;;;9.70;100.00;-25338.56;5075322;28;19917;-84
2022/09/17 02:06:01;;;;;;;;;;;;;;;9.72;100.00;-25338.84;5085143;28;20203;-83
2022/09/17 02:08:29;;;;;;;;;;;;;;;9.70;100.00;-25338.56;5066683;28;19924;-82
2022/09/17 02:10:58;;;;;;;;;;;;;;;9.74;100.00;-25339.44;5076508;28;20376;-81
2022/09/17 02:13:37;;;;;;;;;;;;;;;9.88;100.00;-25343.56;5058940;28;19916;-84
2022/09/17 02:16:15;;;;;;;;;;;;;;;10.04;100.00;-25348.25;5059784;28;19912;-85
2022/09/17 02:18:53;;;;;;;;;;;;;;;10.28;100.00;-25355.00;5069602;28;19955;-82
2022/09/17 02:21:37;;;;;;;;;;;;;;;10.55;100.00;-25362.63;5084022;28;19916;-85
2022/09/17 02:24:04;;;;;;;;;;;;;;;10.68;100.00;-25366.47;5079332;28;19942;-84
2022/09/17 02:26:31;;;;;;;;;;;;;;;10.68;100.00;-25366.31;5079424;28;19916;-84
2022/09/17 02:29:01;;;;;;;;;;;;;;;10.59;100.00;-25363.97;5078250;28;19978;-84
2022/09/17 02:31:26;;;;;;;;;;;;;;;10.54;100.00;-25362.50;5078865;28;19970;-85
2022/09/17 02:33:59;;;;;;;;;;;;;;;10.50;100.00;-25361.19;5070051;28;19920;-83
2022/09/17 02:36:24;;;;;;;;;;;;;;;10.42;100.00;-25358.97;5055824;28;19921;-80
2022/09/17 02:39:02;;;;;;;;;;;;;;;10.37;100.00;-25357.66;5076353;28;19994;-79
2022/09/17 02:41:45;;;;;;;;;;;;;;;10.29;100.00;-25355.16;5072935;28;19913;-79
2022/09/17 02:44:30;;;;;;;;;;;;;;;10.23;100.00;-25353.69;5049388;28;20313;-80
2022/09/17 02:47:16;;;;;;;;;;;;;;;10.22;100.00;-25353.41;5066522;28;19965;-79
2022/09/17 02:50:01;;;;;;;;;;;;;;;10.34;100.00;-25356.63;5060402;28;20034;-79
2022/09/17 02:52:30;;;;;;;;;;;;;;;10.44;100.00;-25359.56;5076617;28;19927;-78
2022/09/17 02:55:05;;;;;;;;;;;;;;;10.50;100.00;-25361.19;5077094;28;20383;-80
2022/09/17 02:57:36;;;;;;;;;;;;;;;10.51;100.00;-25361.47;5078172;28;19977;-79
2022/09/17 03:00:13;;;;;;;;;;;;;;;10.72;100.00;-25367.63;5077760;28;19999;-78
2022/09/17 03:02:42;;;;;;;;;;;;;;;10.63;100.00;-25365.00;5059773;28;19917;-79
2022/09/17 03:05:08;;;;;;;;;;;;;;;10.53;100.00;-25362.22;5057435;28;19923;-80
2022/09/17 03:07:34;;;;;;;;;;;;;;;10.48;100.00;-25360.59;5057747;28;19920;-79
2022/09/17 03:09:59;;;;;;;;;;;;;;;10.49;100.00;-25361.03;5091341;28;20372;-78
2022/09/17 03:12:27;;;;;;;;;;;;;;;10.49;100.00;-25360.88;5090003;28;20361;-84
2022/09/17 03:14:52;;;;;;;;;;;;;;;10.50;100.00;-25361.31;5078370;28;20257;-79
2022/09/17 03:17:17;;;;;;;;;;;;;;;10.54;100.00;-25362.34;5086275;28;19920;-79
2022/09/17 03:19:43;;;;;;;;;;;;;;;10.53;100.00;-25362.22;5092180;28;19934;-79
2022/09/17 03:22:08;;;;;;;;;;;;;;;10.50;100.00;-25361.31;5077610;28;20012;-80
2022/09/17 03:24:33;;;;;;;;;;;;;;;10.49;100.00;-25360.88;5077032;28;19923;-79
2022/09/17 03:26:59;;;;;;;;;;;;;;;10.55;100.00;-25362.63;5090540;28;19917;-78
2022/09/17 03:29:24;;;;;;;;;;;;;;;10.57;100.00;-25363.22;5057476;28;19929;-79
2022/09/17 03:31:49;;;;;;;;;;;;;;;10.65;100.00;-25365.56;5072464;28;19920;-77
2022/09/17 03:34:15;;;;;;;;;;;;;;;10.66;100.00;-25365.72;5076836;28;20534;-78
2022/09/17 03:36:40;;;;;;;;;;;;;;;10.63;100.00;-25364.84;5075484;28;19924;-77
2022/09/17 03:39:05;;;;;;;;;;;;;;;10.72;100.00;-25367.47;5093107;28;20340;-78
2022/09/17 03:41:31;;;;;;;;;;;;;;;10.80;100.00;-25369.69;5068860;28;20429;-79
2022/09/17 03:44:03;;;;;;;;;;;;;;;10.78;100.00;-25369.38;5074626;28;19923;-79
2022/09/17 03:46:28;;;;;;;;;;;;;;;10.62;100.00;-25364.56;5085362;28;19916;-78
2022/09/17 03:48:53;;;;;;;;;;;;;;;10.64;100.00;-25365.28;5077081;28;19992;-86
2022/09/17 03:51:19;;;;;;;;;;;;;;;10.59;100.00;-25363.97;5062224;28;19920;-78
2022/09/17 03:53:45;;;;;;;;;;;;;;;10.37;100.00;-25357.50;5090224;28;19923;-78
2022/09/17 03:56:10;;;;;;;;;;;;;;;10.29;100.00;-25355.31;5090219;28;19916;-78
2022/09/17 03:58:35;;;;;;;;;;;;;;;10.21;100.00;-25353.09;5090060;28;19925;-81
2022/09/17 04:01:02;;;;;;;;;;;;;;;10.13;100.00;-25350.59;5090597;28;19916;-79
2022/09/17 04:03:27;;;;;;;;;;;;;;;10.09;100.00;-25349.56;5090117;28;19916;-78
2022/09/17 04:05:53;;;;;;;;;;;;;;;10.12;100.00;-25350.31;5074053;28;19978;-78
2022/09/17 04:08:20;;;;;;;;;;;;;;;10.24;100.00;-25353.97;5084633;28;20372;-84
2022/09/17 04:10:45;;;;;;;;;;;;;;;10.34;100.00;-25356.78;5076344;28;19961;-81
2022/09/17 04:13:14;;;;;;;;;;;;;;;10.36;100.00;-25357.38;5064375;28;19921;-79
2022/09/17 04:15:39;;;;;;;;;;;;;;;10.35;100.00;-25357.06;5056847;28;20323;-80
2022/09/17 04:18:04;;;;;;;;;;;;;;;10.33;100.00;-25356.47;5089476;28;19916;-80
2022/09/17 04:20:30;;;;;;;;;;;;;;;10.31;100.00;-25355.75;5056086;28;19923;-79
2022/09/17 04:23:00;;;;;;;;;;;;;;;10.32;100.00;-25356.19;5055984;28;19920;-81
2022/09/17 04:25:25;;;;;;;;;;;;;;;10.29;100.00;-25355.31;5089838;28;20011;-83
2022/09/17 04:27:50;;;;;;;;;;;;;;;10.29;100.00;-25355.16;5090001;28;19948;-78
2022/09/17 04:30:16;;;;;;;;;;;;;;;10.26;100.00;-25354.41;5089676;28;19924;-79
2022/09/17 04:32:43;;;;;;;;;;;;;;;10.25;100.00;-25354.13;5073523;28;19923;-79
2022/09/17 04:35:09;;;;;;;;;;;;;;;10.28;100.00;-25355.00;5075945;28;19916;-80
2022/09/17 04:37:34;;;;;;;;;;;;;;;10.30;100.00;-25355.59;5076315;28;20295;-78
2022/09/17 04:39:59;;;;;;;;;;;;;;;10.25;100.00;-25354.13;5064830;28;19955;-80
2022/09/17 04:42:25;;;;;;;;;;;;;;;10.22;100.00;-25353.41;5089002;28;19917;-77
2022/09/17 04:44:50;;;;;;;;;;;;;;;10.20;100.00;-25352.66;5073889;28;20011;-78
2022/09/17 04:47:15;;;;;;;;;;;;;;;10.21;100.00;-25352.97;5075855;28;20007;-78
2022/09/17 04:49:40;;;;;;;;;;;;;;;10.50;100.00;-25361.19;5076137;28;19916;-77
2022/09/17 04:52:06;;;;;;;;;;;;;;;10.51;100.00;-25361.47;5075985;28;19928;-78
2022/09/17 04:54:31;;;;;;;;;;;;;;;10.40;100.00;-25358.38;5075703;28;20373;-81
2022/09/17 04:56:56;;;;;;;;;;;;;;;10.36;100.00;-25357.38;5075943;28;19951;-78
2022/09/17 04:59:22;;;;;;;;;;;;;;;10.30;100.00;-25355.59;5078180;28;20404;-78
2022/09/17 05:01:48;;;;;;;;;;;;;;;10.23;100.00;-25353.53;5090909;28;19921;-78
2022/09/17 05:04:14;;;;;;;;;;;;;;;10.11;100.00;-25350.16;5075251;28;19922;-79
2022/09/17 05:06:40;;;;;;;;;;;;;;;10.03;100.00;-25347.81;5069948;28;20019;-78
2022/09/17 05:09:05;;;;;;;;;;;;;;;9.93;100.00;-25344.88;5097787;28;19971;-79
2022/09/17 05:11:30;;;;;;;;;;;;;;;9.82;100.00;-25341.78;5077939;28;20540;-79
2022/09/17 05:13:56;;;;;;;;;;;;;;;9.76;100.00;-25340.19;5074534;28;19980;-82
2022/09/17 05:16:21;;;;;;;;;;;;;;;9.70;100.00;-25338.56;5092044;28;20284;-80
2022/09/17 05:18:48;;;;;;;;;;;;;;;9.69;100.00;-25338.28;5075423;28;20003;-78
2022/09/17 05:21:13;;;;;;;;;;;;;;;9.61;100.00;-25335.78;5059949;28;19920;-78
2022/09/17 05:23:39;;;;;;;;;;;;;;;9.56;100.00;-25334.44;5072818;28;19962;-79
2022/09/17 05:26:05;;;;;;;;;;;;;;;9.49;100.00;-25332.53;5088750;28;19916;-78
2022/09/17 05:28:30;;;;;;;;;;;;;;;9.44;100.00;-25330.91;5055632;28;19965;-79
2022/09/17 05:30:58;;;;;;;;;;;;;;;9.38;100.00;-25329.16;5089193;28;19920;-79
2022/09/17 05:33:28;;;;;;;;;;;;;;;9.34;100.00;-25328.13;5060765;28;19928;-80
2022/09/17 05:35:53;;;;;;;;;;;;;;;9.38;100.00;-25329.16;5074269;28;19967;-79
2022/09/17 05:38:19;;;;;;;;;;;;;;;9.39;100.00;-25329.59;5092342;28;19920;-78
2022/09/17 05:40:44;;;;;;;;;;;;;;;9.44;100.00;-25330.91;5092773;28;19924;-79
2022/09/17 05:43:11;;;;;;;;;;;;;;;9.46;100.00;-25331.66;5066053;28;20379;-81
2022/09/17 05:45:37;;;;;;;;;;;;;;;9.49;100.00;-25332.38;5075056;28;19920;-82
2022/09/17 05:48:03;;;;;;;;;;;;;;;9.60;100.00;-25335.47;5073740;28;20292;-83
2022/09/17 05:50:29;;;;;;;;;;;;;;;9.69;100.00;-25338.13;5097057;28;20018;-84
2022/09/17 05:53:02;;;;;;;;;;;;;;;9.75;100.00;-25339.75;5078956;28;20352;-84
2022/09/17 05:55:27;;;;;;;;;;;;;;;9.84;100.00;-25342.53;5061120;28;19917;-83
2022/09/17 05:57:53;;;;;;;;;;;;;;;9.97;100.00;-25346.19;5067647;28;19917;-83
2022/09/17 06:00:18;;;;;;;;;;;;;;;10.05;100.00;-25348.41;5092133;28;19922;-85
2022/09/17 06:02:46;;;;;;;;;;;;;;;10.19;100.00;-25352.38;5058762;28;19942;-81
2022/09/17 06:05:13;;;;;;;;;;;;;;;10.28;100.00;-25354.88;5059542;28;19921;-80
2022/09/17 06:07:38;;;;;;;;;;;;;;;10.34;100.00;-25356.78;5068120;28;19927;-78
2022/09/17 06:10:04;;;;;;;;;;;;;;;10.50;100.00;-25361.31;5078462;28;20010;-81
2022/09/17 06:12:31;;;;;;;;;;;;;;;10.48;100.00;-25360.72;5061971;28;19916;-82
2022/09/17 06:14:56;;;;;;;;;;;;;;;10.31;100.00;-25355.75;5058281;28;19920;-79
2022/09/17 06:17:21;;;;;;;;;;;;;;;10.19;100.00;-25352.38;5057743;28;19962;-79
2022/09/17 06:19:47;;;;;;;;;;;;;;;10.07;100.00;-25349.13;5058303;28;19916;-81
2022/09/17 06:22:12;;;;;;;;;;;;;;;9.98;100.00;-25346.50;5057682;28;19987;-83
2022/09/17 06:24:37;;;;;;;;;;;;;;;9.96;100.00;-25345.91;5074325;28;19917;-81
2022/09/17 06:27:03;;;;;;;;;;;;;;;9.94;100.00;-25345.31;5078299;28;19923;-83
2022/09/17 06:29:28;;;;;;;;;;;;;;;10.04;100.00;-25348.25;5069146;28;19927;-83
2022/09/17 06:31:53;;;;;;;;;;;;;;;10.29;100.00;-25355.31;5058052;28;19912;-84
2022/09/17 06:34:18;;;;;;;;;;;;;;;10.52;100.00;-25361.91;5057866;28;19917;-80
2022/09/17 06:36:45;;;;;;;;;;;;;;;10.86;100.00;-25371.44;5057527;28;19956;-81
2022/09/17 06:39:10;;;;;;;;;;;;;;;10.95;100.00;-25374.22;5057824;28;19923;-82
2022/09/17 06:41:36;;;;;;;;;;;;;;;10.84;100.00;-25370.84;5075106;28;20300;-84
2022/09/17 06:44:06;;;;;;;;;;;;;;;10.64;100.00;-25365.28;5058156;28;19965;-84
2022/09/17 06:46:31;;;;;;;;;;;;;;;10.49;100.00;-25360.88;5059358;28;20262;-81
2022/09/17 06:48:56;;;;;;;;;;;;;;;10.22;100.00;-25353.25;5057973;28;19924;-84
2022/09/17 06:51:22;;;;;;;;;;;;;;;10.06;100.00;-25348.84;5058230;28;20388;-82
2022/09/17 06:53:53;;;;;;;;;;;;;;;10.00;100.00;-25347.09;5058192;28;19917;-82
2022/09/17 06:56:19;;;;;;;;;;;;;;;10.00;100.00;-25347.09;5057322;28;19955;-81
2022/09/17 06:58:44;;;;;;;;;;;;;;;10.06;100.00;-25348.84;5045938;28;19982;-86
2022/09/17 07:01:10;;;;;;;;;;;;;;;10.14;100.00;-25350.91;5069568;28;20276;-84
2022/09/17 07:03:37;;;;;;;;;;;;;;;10.18;100.00;-25352.06;5077616;28;19938;-88
2022/09/17 07:06:02;;;;;;;;;;;;;;;10.20;100.00;-25352.81;5075880;28;19973;-86
2022/09/17 07:08:28;;;;;;;;;;;;;;;10.24;100.00;-25353.84;5076582;28;19924;-88
2022/09/17 07:10:56;;;;;;;;;;;;;;;10.52;100.00;-25361.91;5057676;28;19928;-88
2022/09/17 07:13:23;;;;;;;;;;;;;;;10.88;100.00;-25372.19;5058430;28;19916;-87
2022/09/17 07:15:55;;;;;;;;;;;;;;;11.18;100.00;-25380.69;5075589;28;19912;-84
2022/09/17 07:18:22;;;;;;;;;;;;;;;11.42;100.00;-25387.56;5056580;28;19916;-79
2022/09/17 07:20:54;;;;;;;;;;;;;;;11.45;100.00;-25388.44;5059691;28;19920;-86
2022/09/17 07:23:24;;;;;;;;;;;;;;;11.25;100.00;-25382.59;5076532;28;19916;-86
2022/09/17 07:26:03;;;;;;;;;;;;;;;11.08;100.00;-25377.91;5059090;28;19916;-88
2022/09/17 07:28:29;;;;;;;;;;;;;;;11.05;100.00;-25377.00;5041622;28;19921;-89
2022/09/17 07:30:55;;;;;;;;;;;;;;;11.01;100.00;-25375.69;5043875;28;19919;-83
2022/09/17 07:33:24;;;;;;;;;;;;;;;11.00;100.00;-25375.41;5044485;28;20380;-79
2022/09/17 07:35:53;;;;;;;;;;;;;;;11.16;100.00;-25379.94;5065370;28;19921;-79
2022/09/17 07:38:18;;;;;;;;;;;;;;;11.41;100.00;-25387.28;5077677;28;19916;-86
2022/09/17 07:40:54;;;;;;;;;;;;;;;11.72;100.00;-25396.06;5067374;28;19923;-84
2022/09/17 07:43:25;;;;;;;;;;;;;;;11.88;100.00;-25400.59;5058380;28;19949;-85
2022/09/17 07:45:52;;;;;;;;;;;;;;;11.85;100.00;-25399.88;5058037;28;19917;-80
2022/09/17 07:48:17;;;;;;;;;;;;;;;12.13;100.00;-25407.63;5072988;28;19920;-84
2022/09/17 07:50:42;;;;;;;;;;;;;;;12.35;100.00;-25414.06;5077148;28;19927;-85
2022/09/17 07:53:10;;;;;;;;;;;;;;;12.39;100.00;-25415.09;5077005;28;19916;-79
2022/09/17 07:55:36;;;;;;;;;;;;;;;12.90;100.00;-25429.69;5059655;28;20246;-79
2022/09/17 07:58:01;;;;;;;;;;;;;;;13.01;100.00;-25432.63;5090342;28;19942;-82
2022/09/17 08:00:26;;;;;;;;;;;;;;;12.56;100.00;-25419.91;5090050;28;19982;-77
2022/09/17 08:02:53;;;;;;;;;;;;;;;11.98;100.00;-25403.38;5090881;28;19920;-82
2022/09/17 08:05:20;;;;;;;;;;;;;;;11.64;100.00;-25393.84;5090687;28;19948;-80
2022/09/17 08:07:53;;;;;;;;;;;;;;;11.42;100.00;-25387.56;5075685;28;20344;-79
2022/09/17 08:10:22;;;;;;;;;;;;;;;11.20;100.00;-25381.13;5075635;28;19916;-78
2022/09/17 08:12:48;;;;;;;;;;;;;;;11.18;100.00;-25380.69;5075369;28;19977;-81
2022/09/17 08:15:14;;;;;;;;;;;;;;;11.95;100.00;-25402.50;5074904;28;19916;-78
2022/09/17 08:17:46;;;;;;;;;;;;;;;12.93;100.00;-25430.44;5075046;28;19943;-79
2022/09/17 08:20:12;;;;;;;;;;;;;;;13.64;100.00;-25450.59;5074467;28;20367;-83
2022/09/17 08:22:37;;;;;;;;;;;;;;;14.33;100.00;-25470.28;5075199;28;19955;-80
2022/09/17 08:25:03;;;;;;;;;;;;;;;15.01;100.00;-25158.88;5075107;28;20011;-79
2022/09/17 08:27:32;;;;;;;;;;;;;;;15.23;100.00;-16276.72;5073675;28;19923;-78
2022/09/17 08:29:57;;;;;;;;;;;;;;;15.96;100.00;-5051.66;5093204;28;19912;-83
2022/09/17 08:32:24;;;;;;;;;;;;;;;15.33;100.00;14168.41;5074604;28;19916;-77
2022/09/17 08:34:49;;;;;;;;;;;;;;;14.78;100.00;31783.13;5074805;28;19916;-79
2022/09/17 08:37:15;;;;;;;;;;;;;;;13.84;100.00;39056.38;5092834;28;20284;-77
2022/09/17 08:39:40;;;;;;;;;;;;;;;13.54;100.00;28711.41;5092873;28;19973;-86
2022/09/17 08:42:19;;;;;;;;;;;;;;;13.18;100.00;22712.88;5074180;28;19962;-80
2022/09/17 08:44:46;;;;;;;;;;;;;;;13.20;100.00;11116.34;5063479;28;19927;-83
2022/09/17 08:47:19;;;;;;;;;;;;;;;13.65;100.00;878.94;5055389;28;19920;-83
2022/09/17 08:49:44;;;;;;;;;;;;;;;13.88;100.00;-2090.09;5055122;28;20387;-78
2022/09/17 08:55:09;;;;;;;;;;;;;;;13.83;100.00;-4070.41;5073918;28;19932;-78
2022/09/17 08:57:48;;;;;;;;;;;;;;;13.43;100.00;-3413.13;5059697;28;19952;-78
2022/09/17 09:00:21;;;;;;;;;;;;;;;13.41;100.00;-5391.19;5075330;28;19974;-78
2022/09/17 09:03:10;;;;;;;;;;;;;;;13.66;100.00;-4401.13;5069149;28;19921;-78
2022/09/17 09:05:46;;;;;;;;;;;;;;;13.92;100.00;-4399.88;5055564;28;19952;-80
2022/09/17 09:08:11;;;;;;;;;;;;;;;14.09;100.00;-6708.41;5055117;28;19967;-80
2022/09/17 09:10:45;;;;;;;;;;;;;;;14.29;100.00;-1095.50;5054956;28;19963;-79
2022/09/17 09:13:14;;;;;;;;;;;;;;;14.42;100.00;-433.22;5055224;28;19923;-82
2022/09/17 09:15:46;;;;;;;;;;;;;;;14.93;100.00;4868.63;5052520;28;19917;-75
2022/09/17 09:18:20;;;;;;;;;;;;;;;14.69;100.00;9834.03;5072326;28;19959;-77
2022/09/17 09:21:10;;;;;;;;;;;;;;;14.36;100.00;24100.06;5072187;28;19920;-75
2022/09/17 09:23:50;;;;;;;;;;;;;;;13.85;100.00;42728.34;5074289;28;19927;-84
2022/09/17 09:26:20;;;;;;;;;;;;;;;13.87;100.00;44733.94;5034534;28;20388;-78
2022/09/17 09:28:45;;;;;;;;;;;;;;;13.77;100.00;39051.03;5048958;28;19963;-77
2022/09/17 09:31:36;;;;;;;;;;;;;;;13.63;100.00;34041.88;5067098;28;19979;-76
2022/09/17 09:34:02;;;;;;;;;;;;;;;13.99;100.00;37065.94;5057693;28;20366;-76
2022/09/17 09:36:30;;;;;;;;;;;;;;;14.13;100.00;41748.91;5074531;28;19916;-84
2022/09/17 09:39:00;;;;;;;;;;;;;;;13.71;100.00;54752.81;5056051;28;19916;-83
2022/09/17 09:41:30;;;;;;;;;;;;;;;13.26;100.00;45350.59;5048398;28;19922;-81
2022/09/17 09:44:03;;;;;;;;;;;;;;;13.02;100.00;20383.59;5054784;28;19920;-83
2022/09/17 09:46:28;;;;;;;;;;;;;;;12.73;100.00;-2099.91;5054088;28;19924;-79
2022/09/17 09:49:06;;;;;;;;;;;;;;;12.61;100.00;-13613.69;5055966;28;19940;-84
2022/09/17 09:51:39;;;;;;;;;;;;;;;12.66;100.00;-21489.41;5072522;28;19920;-83
2022/09/17 09:54:37;;;;;;;;;;;;;;;12.83;100.00;-25427.66;5069043;28;19916;-76
2022/09/17 09:57:09;;;;;;;;;;;;;;;12.95;100.00;-25430.88;5036016;28;20015;-76
2022/09/17 09:59:35;;;;;;;;;;;;;;;13.37;100.00;-25442.84;5052756;28;19916;-78
2022/09/17 10:02:01;;;;;;;;;;;;;;;13.61;100.00;-25449.72;5053448;28;20360;-75
2022/09/17 10:04:27;;;;;;;;;;;;;;;13.60;100.00;-25449.56;5052501;28;19966;-77
2022/09/17 10:07:04;;;;;;;;;;;;;;;14.00;100.00;-25460.94;5052241;28;19925;-76
2022/09/17 10:09:31;;;;;;;;;;;;;;;14.44;100.00;-25473.34;5053513;28;19963;-76
2022/09/17 10:12:05;;;;;;;;;;;;;;;14.64;100.00;-25478.88;5053628;28;19920;-77
2022/09/17 10:14:31;;;;;;;;;;;;;;;14.91;100.00;-24498.69;5052730;28;20015;-76
2022/09/17 10:17:17;;;;;;;;;;;;;;;14.46;100.00;-21200.47;5055631;28;20087;-81
2022/09/17 10:19:46;;;;;;;;;;;;;;;13.62;100.00;-15596.91;5058117;28;19958;-80
2022/09/17 10:22:22;;;;;;;;;;;;;;;13.11;100.00;-13618.66;5058242;28;19916;-81
2022/09/17 10:24:48;;;;;;;;;;;;;;;12.97;100.00;-17558.69;5058336;28;19978;-77
2022/09/17 10:27:16;;;;;;;;;;;;;;;13.02;100.00;-18872.56;5068475;28;20592;-75
2022/09/17 10:29:43;;;;;;;;;;;;;;;13.82;100.00;-23485.06;5078246;28;19916;-81
2022/09/17 10:32:13;;;;;;;;;;;;;;;13.65;100.00;-20854.66;5077822;28;20429;-81
2022/09/17 10:34:40;;;;;;;;;;;;;;;13.37;100.00;-20192.19;5096277;28;19947;-82
2022/09/17 10:37:25;;;;;;;;;;;;;;;13.32;100.00;-15264.34;5076893;28;20540;-77
2022/09/17 10:39:52;;;;;;;;;;;;;;;13.01;100.00;-8355.59;5077827;28;19916;-78
2022/09/17 10:42:17;;;;;;;;;;;;;;;13.19;100.00;-6050.75;5060429;28;19920;-79
2022/09/17 10:44:53;;;;;;;;;;;;;;;13.44;100.00;-4402.22;5077025;28;19923;-78
2022/09/17 10:47:21;;;;;;;;;;;;;;;13.85;100.00;1211.88;5074769;28;19999;-78
2022/09/17 10:49:48;;;;;;;;;;;;;;;14.20;100.00;5185.28;5076788;28;19966;-79
2022/09/17 10:52:14;;;;;;;;;;;;;;;14.27;100.00;10153.78;5096009;28;19978;-80
2022/09/17 10:54:48;;;;;;;;;;;;;;;14.34;100.00;24431.38;5096066;28;19934;-78
2022/09/17 10:57:19;;;;;;;;;;;;;;;14.50;100.00;25104.88;5061858;28;19948;-80
2022/09/17 10:59:55;;;;;;;;;;;;;;;14.66;100.00;33443.09;5060143;28;19966;-77
2022/09/17 11:02:30;;;;;;;;;;;;;;;14.65;100.00;41120.84;5058041;28;20003;-76
2022/09/17 11:05:14;;;;;;;;;;;;;;;14.68;100.00;56191.59;5058579;28;19921;-78
2022/09/17 11:07:47;;;;;;;;;;;;;;;14.93;100.00;52191.34;5057488;28;19982;-76
2022/09/17 11:10:31;;;;;;;;;;;;;;;14.99;100.00;66977.63;5062125;28;19932;-76
2022/09/17 11:13:17;;;;;;;;;;;;;;;14.91;100.00;146487.41;5065216;28;19916;-75
2022/09/17 11:15:42;;;;;;;;;;;;;;;14.72;100.00;146440.22;5067940;28;19955;-75
2022/09/17 11:18:18;;;;;;;;;;;;;;;15.04;100.00;146520.63;5070495;28;19935;-75
2022/09/17 11:20:49;;;;;;;;;;;;;;;15.05;100.00;146523.13;5061938;28;19963;-76
2022/09/17 11:23:41;;;;;;;;;;;;;;;15.17;100.00;146552.50;5056970;28;20003;-76
2022/09/17 11:26:30;;;;;;;;;;;;;;;14.98;100.00;146505.28;5057289;28;19959;-76
2022/09/17 11:29:04;;;;;;;;;;;;;;;15.18;100.00;146555.06;5056860;28;20051;-76
2022/09/17 11:31:35;;;;;;;;;;;;;;;15.04;100.00;146520.63;5055535;28;19916;-77
2022/09/17 11:34:01;;;;;;;;;;;;;;;15.41;100.00;146611.22;5055637;28;19913;-78
2022/09/17 11:36:39;;;;;;;;;;;;;;;15.80;100.00;146708.34;5055617;28;19966;-75
2022/09/17 11:39:12;;;;;;;;;;;;;;;15.65;100.00;146671.22;5054574;28;19948;-77
2022/09/17 11:41:42;;;;;;;;;;;;;;;15.50;100.00;146634.19;5056146;28;19917;-78
2022/09/17 11:44:08;;;;;;;;;;;;;;;15.24;100.00;146569.09;5054818;28;19916;-76
2022/09/17 11:46:37;;;;;;;;;;;;;;;15.26;100.00;146574.22;5056421;28;19917;-76
2022/09/17 11:49:33;;;;;;;;;;;;;;;15.08;100.00;146530.78;5057527;28;19922;-76
2022/09/17 11:52:02;;;;;;;;;;;;;;;15.12;100.00;146539.75;5002725;28;19974;-77
2022/09/17 11:54:32;;;;;;;;;;;;;;;14.88;100.00;146479.75;5056058;28;19912;-79
2022/09/17 11:57:03;;;;;;;;;;;;;;;14.66;100.00;146424.91;5057241;28;20391;-77
2022/09/17 11:59:31;;;;;;;;;;;;;;;14.53;100.00;146392.97;5056950;28;20007;-79
2022/09/17 12:02:01;;;;;;;;;;;;;;;14.41;100.00;146362.34;5057638;28;19963;-78
2022/09/17 12:04:39;;;;;;;;;;;;;;;14.35;100.00;146349.56;5056715;28;19927;-77
2022/09/17 12:07:10;;;;;;;;;;;;;;;14.82;100.00;146465.75;5057327;28;19927;-82
2022/09/17 12:09:36;;;;;;;;;;;;;;;15.12;100.00;146539.75;5059487;28;19974;-82
2022/09/17 12:12:08;;;;;;;;;;;;;;;15.25;100.00;146572.91;5060273;28;20023;-86
2022/09/17 12:14:42;;;;;;;;;;;;;;;15.41;100.00;146611.22;5060596;28;20401;-83
2022/09/17 12:17:11;;;;;;;;;;;;;;;15.38;100.00;146604.84;5061691;28;19922;-82
2022/09/17 12:19:40;;;;;;;;;;;;;;;15.28;100.00;146578.06;5056685;28;19925;-79
2022/09/17 12:22:08;;;;;;;;;;;;;;;15.47;100.00;146625.28;5055227;28;19916;-80
2022/09/17 12:24:37;;;;;;;;;;;;;;;15.48;100.00;146627.84;5055773;28;19916;-78
2022/09/17 12:27:08;;;;;;;;;;;;;;;15.37;100.00;146602.28;5056042;28;19947;-77
2022/09/17 12:29:43;;;;;;;;;;;;;;;15.49;100.00;146630.34;5074190;28;19923;-80
2022/09/17 12:32:30;;;;;;;;;;;;;;;15.50;100.00;146632.94;5056543;28;19918;-77
2022/09/17 12:35:14;;;;;;;;;;;;;;;15.46;100.00;146624.00;5055589;28;20351;-77
2022/09/17 12:37:44;;;;;;;;;;;;;;;15.46;100.00;146624.00;5073604;28;20019;-78
2022/09/17 12:40:13;;;;;;;;;;;;;;;15.47;100.00;146625.28;5054958;28;19958;-78
2022/09/17 12:42:51;;;;;;;;;;;;;;;15.63;100.00;146666.16;5055941;28;19916;-79
2022/09/17 12:45:19;;;;;;;;;;;;;;;15.68;100.00;146677.63;5055643;28;19921;-78